Time;durP1;ratioP1;P1;durP2;ratioP2;P2;SDS_P1;SDS_P2;PMS_P1;PMS_P2;Temp;Humidity;BMP_temperature;BMP_pressure;BME280_temperature;BME280_humidity;BME280_pressure;Samples;Min_cycle;Max_cycle;Signal;HPM_P1;HPM_P2
2022/08/22 00:00:11;;;;;;;0.2;0.2;;;;;;;20.2;100.0;101350;;;;
2022/08/22 00:01:10;;;;;;;0.2;0.2;;;;;;;20.2;100.0;101350;;;;
2022/08/22 00:02:09;;;;;;;0.2;0.2;;;;;;;20.2;100.0;101350;;;;
2022/08/22 00:03:17;;;;;;;0.2;0.2;;;;;;;20.2;100.0;101350;;;;
2022/08/22 00:04:04;;;;;;;0.2;0.2;;;;;;;20.2;100.0;101350;;;;
2022/08/22 00:05:00;;;;;;;0.2;0.2;;;;;;;20.2;100.0;101350;;;;
2022/08/22 00:06:05;;;;;;;0.2;0.2;;;;;;;20.2;100.0;101350;;;;
2022/08/22 00:07:07;;;;;;;0.2;0.2;;;;;;;20.2;100.0;101350;;;;
2022/08/22 00:08:10;;;;;;;0.2;0.2;;;;;;;20.1;100.0;101350;;;;
2022/08/22 00:09:03;;;;;;;0.2;0.2;;;;;;;20.1;100.0;101350;;;;
2022/08/22 00:10:10;;;;;;;0.2;0.2;;;;;;;20.1;100.0;101350;;;;
2022/08/22 00:11:11;;;;;;;0.2;0.2;;;;;;;20.0;100.0;101350;;;;
2022/08/22 00:12:07;;;;;;;0.2;0.2;;;;;;;20.0;100.0;101350;;;;
2022/08/22 00:13:02;;;;;;;0.2;0.2;;;;;;;20.0;100.0;101350;;;;
2022/08/22 00:14:10;;;;;;;0.2;0.2;;;;;;;20.0;100.0;101350;;;;
2022/08/22 00:15:20;;;;;;;0.2;0.2;;;;;;;20.0;100.0;101350;;;;
2022/08/22 00:16:10;;;;;;;0.2;0.2;;;;;;;20.0;100.0;101350;;;;
2022/08/22 00:17:00;;;;;;;0.2;0.2;;;;;;;20.0;100.0;101350;;;;
2022/08/22 00:18:10;;;;;;;26.6;1.3;;;;;;;19.9;100.0;101350;;;;
2022/08/22 00:19:11;;;;;;;26.6;1.3;;;;;;;20.0;100.0;101350;;;;
2022/08/22 00:20:07;;;;;;;26.6;1.3;;;;;;;20.0;100.0;101350;;;;
2022/08/22 00:21:10;;;;;;;26.6;1.3;;;;;;;19.9;100.0;101350;;;;
2022/08/22 00:22:07;;;;;;;26.6;1.3;;;;;;;19.9;100.0;101350;;;;
2022/08/22 00:23:10;;;;;;;26.6;1.3;;;;;;;19.8;100.0;101350;;;;
2022/08/22 00:24:00;;;;;;;26.6;1.3;;;;;;;19.8;100.0;101350;;;;
2022/08/22 00:25:20;;;;;;;26.6;1.3;;;;;;;19.9;100.0;101350;;;;
2022/08/22 00:26:02;;;;;;;26.6;1.3;;;;;;;19.9;100.0;101350;;;;
2022/08/22 00:27:04;;;;;;;26.6;1.3;;;;;;;19.9;100.0;101350;;;;
2022/08/22 00:28:10;;;;;;;26.6;1.3;;;;;;;19.8;100.0;101350;;;;
2022/08/22 00:29:03;;;;;;;26.6;1.3;;;;;;;19.8;100.0;101350;;;;
2022/08/22 00:30:08;;;;;;;26.6;1.3;;;;;;;19.8;100.0;101350;;;;
2022/08/22 00:31:07;;;;;;;26.6;1.3;;;;;;;19.8;100.0;101350;;;;
2022/08/22 00:32:11;;;;;;;26.6;1.3;;;;;;;19.8;100.0;101350;;;;
2022/08/22 00:33:03;;;;;;;26.6;1.3;;;;;;;19.8;100.0;101350;;;;
2022/08/22 00:34:03;;;;;;;26.6;1.3;;;;;;;19.8;100.0;101350;;;;
2022/08/22 00:35:02;;;;;;;26.6;1.3;;;;;;;19.8;100.0;101350;;;;
2022/08/22 00:36:10;;;;;;;26.6;1.3;;;;;;;19.8;100.0;101350;;;;
2022/08/22 00:37:10;;;;;;;26.6;1.3;;;;;;;19.9;100.0;101350;;;;
2022/08/22 00:38:04;;;;;;;0.3;0.3;;;;;;;19.9;100.0;101350;;;;
2022/08/22 00:39:03;;;;;;;0.3;0.3;;;;;;;19.9;100.0;101350;;;;
2022/08/22 00:40:03;;;;;;;0.3;0.3;;;;;;;19.7;100.0;101350;;;;
2022/08/22 00:41:00;;;;;;;0.3;0.3;;;;;;;19.7;100.0;101350;;;;
2022/08/22 00:42:09;;;;;;;0.3;0.3;;;;;;;19.8;100.0;101350;;;;
2022/08/22 00:43:10;;;;;;;0.3;0.3;;;;;;;19.8;100.0;101350;;;;
2022/08/22 00:44:03;;;;;;;0.3;0.3;;;;;;;19.8;100.0;101350;;;;
2022/08/22 00:45:01;;;;;;;0.3;0.3;;;;;;;19.8;100.0;101350;;;;
2022/08/22 00:46:00;;;;;;;0.3;0.3;;;;;;;19.8;100.0;101350;;;;
2022/08/22 00:47:06;;;;;;;0.3;0.3;;;;;;;19.8;100.0;101350;;;;
2022/08/22 00:48:07;;;;;;;0.3;0.3;;;;;;;19.8;100.0;101350;;;;
2022/08/22 00:49:10;;;;;;;0.3;0.3;;;;;;;19.8;100.0;101350;;;;
2022/08/22 00:50:01;;;;;;;0.3;0.3;;;;;;;19.8;100.0;101350;;;;
2022/08/22 00:51:00;;;;;;;0.3;0.3;;;;;;;19.8;100.0;101350;;;;
2022/08/22 00:52:10;;;;;;;0.3;0.3;;;;;;;19.8;100.0;101350;;;;
2022/08/22 00:53:01;;;;;;;0.3;0.3;;;;;;;19.8;100.0;101350;;;;
2022/08/22 00:54:03;;;;;;;0.3;0.3;;;;;;;19.8;100.0;101350;;;;
2022/08/22 00:55:10;;;;;;;0.3;0.3;;;;;;;19.8;100.0;101350;;;;
2022/08/22 00:56:09;;;;;;;0.3;0.3;;;;;;;19.8;100.0;101350;;;;
2022/08/22 00:57:01;;;;;;;0.3;0.3;;;;;;;19.8;100.0;101350;;;;
2022/08/22 00:58:10;;;;;;;0.2;0.2;;;;;;;19.8;100.0;101350;;;;
2022/08/22 00:59:20;;;;;;;0.2;0.2;;;;;;;19.8;100.0;101350;;;;
2022/08/22 01:00:08;;;;;;;0.2;0.2;;;;;;;19.8;100.0;101350;;;;
2022/08/22 01:01:05;;;;;;;0.2;0.2;;;;;;;19.8;100.0;101350;;;;
2022/08/22 01:02:09;;;;;;;0.2;0.2;;;;;;;19.7;100.0;101360;;;;
2022/08/22 01:03:01;;;;;;;0.2;0.2;;;;;;;19.7;100.0;101360;;;;
2022/08/22 01:04:08;;;;;;;0.2;0.2;;;;;;;19.7;100.0;101360;;;;
2022/08/22 01:05:08;;;;;;;0.2;0.2;;;;;;;19.8;100.0;101360;;;;
2022/08/22 01:06:06;;;;;;;0.2;0.2;;;;;;;19.8;100.0;101360;;;;
2022/08/22 01:07:00;;;;;;;0.2;0.2;;;;;;;19.8;100.0;101360;;;;
2022/08/22 01:08:10;;;;;;;0.2;0.2;;;;;;;19.8;100.0;101360;;;;
2022/08/22 01:09:07;;;;;;;0.2;0.2;;;;;;;19.6;100.0;101360;;;;
2022/08/22 01:10:00;;;;;;;0.2;0.2;;;;;;;19.6;100.0;101360;;;;
2022/08/22 01:11:10;;;;;;;0.2;0.2;;;;;;;19.7;100.0;101350;;;;
2022/08/22 01:12:10;;;;;;;0.2;0.2;;;;;;;19.7;100.0;101350;;;;
2022/08/22 01:13:06;;;;;;;0.2;0.2;;;;;;;19.7;100.0;101350;;;;
2022/08/22 01:14:10;;;;;;;0.2;0.2;;;;;;;19.8;100.0;101350;;;;
2022/08/22 01:15:10;;;;;;;0.2;0.2;;;;;;;19.8;100.0;101350;;;;
2022/08/22 01:16:10;;;;;;;0.2;0.2;;;;;;;19.8;100.0;101350;;;;
2022/08/22 01:17:10;;;;;;;0.2;0.2;;;;;;;19.7;100.0;101360;;;;
2022/08/22 01:18:10;;;;;;;1.0;0.9;;;;;;;19.7;100.0;101360;;;;
2022/08/22 01:19:10;;;;;;;1.0;0.9;;;;;;;19.7;100.0;101360;;;;
2022/08/22 01:20:00;;;;;;;1.0;0.9;;;;;;;19.7;100.0;101360;;;;
2022/08/22 01:21:00;;;;;;;1.0;0.9;;;;;;;19.7;100.0;101360;;;;
2022/08/22 01:22:10;;;;;;;1.0;0.9;;;;;;;19.5;100.0;101350;;;;
2022/08/22 01:23:03;;;;;;;1.0;0.9;;;;;;;19.5;100.0;101350;;;;
2022/08/22 01:24:03;;;;;;;1.0;0.9;;;;;;;19.4;100.0;101360;;;;
2022/08/22 01:26:11;;;;;;;1.0;0.9;;;;;;;19.5;100.0;101350;;;;
2022/08/22 01:27:11;;;;;;;1.0;0.9;;;;;;;19.5;100.0;101350;;;;
2022/08/22 01:28:11;;;;;;;1.0;0.9;;;;;;;19.5;100.0;101350;;;;
2022/08/22 01:29:00;;;;;;;1.0;0.9;;;;;;;19.5;100.0;101350;;;;
2022/08/22 01:30:00;;;;;;;1.0;0.9;;;;;;;19.5;100.0;101350;;;;
2022/08/22 01:31:10;;;;;;;1.0;0.9;;;;;;;19.6;100.0;101350;;;;
2022/08/22 01:32:10;;;;;;;1.0;0.9;;;;;;;19.6;100.0;101350;;;;
2022/08/22 01:33:10;;;;;;;1.0;0.9;;;;;;;19.5;100.0;101360;;;;
2022/08/22 01:34:13;;;;;;;1.0;0.9;;;;;;;19.5;100.0;101360;;;;
2022/08/22 01:35:08;;;;;;;1.0;0.9;;;;;;;19.5;100.0;101360;;;;
2022/08/22 01:36:10;;;;;;;1.0;0.9;;;;;;;19.5;100.0;101360;;;;
2022/08/22 01:37:10;;;;;;;1.0;0.9;;;;;;;19.5;100.0;101360;;;;
2022/08/22 01:38:11;;;;;;;0.3;0.3;;;;;;;19.5;100.0;101360;;;;
2022/08/22 01:39:10;;;;;;;0.3;0.3;;;;;;;19.4;100.0;101360;;;;
2022/08/22 01:40:11;;;;;;;0.3;0.3;;;;;;;19.4;100.0;101360;;;;
2022/08/22 01:41:00;;;;;;;0.3;0.3;;;;;;;19.4;100.0;101360;;;;
2022/08/22 01:42:11;;;;;;;0.3;0.3;;;;;;;19.4;100.0;101350;;;;
2022/08/22 01:43:10;;;;;;;0.3;0.3;;;;;;;19.3;100.0;101350;;;;
2022/08/22 01:44:10;;;;;;;0.3;0.3;;;;;;;19.3;100.0;101350;;;;
2022/08/22 01:45:10;;;;;;;0.3;0.3;;;;;;;19.5;100.0;101350;;;;
2022/08/22 01:46:10;;;;;;;0.3;0.3;;;;;;;19.5;100.0;101350;;;;
2022/08/22 01:47:04;;;;;;;0.3;0.3;;;;;;;19.5;100.0;101350;;;;
2022/08/22 01:48:03;;;;;;;0.3;0.3;;;;;;;19.6;100.0;101350;;;;
2022/08/22 01:49:10;;;;;;;0.3;0.3;;;;;;;19.5;100.0;101350;;;;
2022/08/22 01:50:08;;;;;;;0.3;0.3;;;;;;;19.5;100.0;101350;;;;
2022/08/22 01:51:10;;;;;;;0.3;0.3;;;;;;;19.4;100.0;101350;;;;
2022/08/22 01:52:01;;;;;;;0.3;0.3;;;;;;;19.4;100.0;101350;;;;
2022/08/22 01:53:03;;;;;;;0.3;0.3;;;;;;;19.4;100.0;101350;;;;
2022/08/22 01:54:04;;;;;;;0.3;0.3;;;;;;;19.4;100.0;101350;;;;
2022/08/22 01:55:05;;;;;;;0.3;0.3;;;;;;;19.4;100.0;101350;;;;
2022/08/22 01:56:08;;;;;;;0.3;0.3;;;;;;;19.4;100.0;101350;;;;
2022/08/22 01:57:01;;;;;;;0.3;0.3;;;;;;;19.4;100.0;101350;;;;
2022/08/22 01:58:02;;;;;;;0.5;0.5;;;;;;;19.4;100.0;101350;;;;
2022/08/22 01:59:03;;;;;;;0.5;0.5;;;;;;;19.4;100.0;101350;;;;
2022/08/22 02:00:07;;;;;;;0.5;0.5;;;;;;;19.3;100.0;101340;;;;
2022/08/22 02:01:07;;;;;;;0.5;0.5;;;;;;;19.2;100.0;101350;;;;
2022/08/22 02:02:01;;;;;;;0.5;0.5;;;;;;;19.2;100.0;101350;;;;
2022/08/22 02:03:10;;;;;;;0.5;0.5;;;;;;;19.2;100.0;101340;;;;
2022/08/22 02:04:04;;;;;;;0.5;0.5;;;;;;;19.2;100.0;101340;;;;
2022/08/22 02:05:10;;;;;;;0.5;0.5;;;;;;;19.0;100.0;101340;;;;
2022/08/22 02:06:06;;;;;;;0.5;0.5;;;;;;;19.0;100.0;101340;;;;
2022/08/22 02:07:10;;;;;;;0.5;0.5;;;;;;;19.0;100.0;101340;;;;
2022/08/22 02:08:04;;;;;;;0.5;0.5;;;;;;;19.0;100.0;101340;;;;
2022/08/22 02:09:00;;;;;;;0.5;0.5;;;;;;;19.0;100.0;101340;;;;
2022/08/22 02:10:00;;;;;;;0.5;0.5;;;;;;;19.0;100.0;101340;;;;
2022/08/22 02:11:03;;;;;;;0.5;0.5;;;;;;;19.0;100.0;101340;;;;
2022/08/22 02:12:20;;;;;;;0.5;0.5;;;;;;;19.0;100.0;101340;;;;
2022/08/22 02:13:10;;;;;;;0.5;0.5;;;;;;;19.1;100.0;101340;;;;
2022/08/22 02:14:06;;;;;;;0.5;0.5;;;;;;;19.1;100.0;101340;;;;
2022/08/22 02:15:01;;;;;;;0.5;0.5;;;;;;;19.1;100.0;101340;;;;
2022/08/22 02:16:05;;;;;;;0.5;0.5;;;;;;;19.1;100.0;101340;;;;
2022/08/22 02:17:10;;;;;;;0.5;0.5;;;;;;;19.2;100.0;101340;;;;
2022/08/22 02:18:01;;;;;;;1.3;0.4;;;;;;;19.2;100.0;101340;;;;
2022/08/22 02:19:10;;;;;;;1.3;0.4;;;;;;;19.3;100.0;101340;;;;
2022/08/22 02:20:10;;;;;;;1.3;0.4;;;;;;;19.3;100.0;101340;;;;
2022/08/22 02:21:07;;;;;;;1.3;0.4;;;;;;;19.2;100.0;101340;;;;
2022/08/22 02:22:00;;;;;;;1.3;0.4;;;;;;;19.2;100.0;101340;;;;
2022/08/22 02:23:10;;;;;;;1.3;0.4;;;;;;;19.2;100.0;101340;;;;
2022/08/22 02:24:10;;;;;;;1.3;0.4;;;;;;;19.2;100.0;101340;;;;
2022/08/22 02:25:01;;;;;;;1.3;0.4;;;;;;;19.2;100.0;101340;;;;
2022/08/22 02:26:00;;;;;;;1.3;0.4;;;;;;;19.1;100.0;101340;;;;
2022/08/22 02:27:03;;;;;;;1.3;0.4;;;;;;;19.1;100.0;101340;;;;
2022/08/22 02:28:07;;;;;;;1.3;0.4;;;;;;;19.1;100.0;101340;;;;
2022/08/22 02:29:06;;;;;;;1.3;0.4;;;;;;;19.1;100.0;101340;;;;
2022/08/22 02:30:10;;;;;;;1.3;0.4;;;;;;;19.0;100.0;101340;;;;
2022/08/22 02:31:00;;;;;;;1.3;0.4;;;;;;;19.0;100.0;101340;;;;
2022/08/22 02:32:00;;;;;;;1.3;0.4;;;;;;;18.9;100.0;101340;;;;
2022/08/22 02:33:07;;;;;;;1.3;0.4;;;;;;;19.1;100.0;101330;;;;
2022/08/22 02:34:02;;;;;;;1.3;0.4;;;;;;;19.1;100.0;101330;;;;
2022/08/22 02:35:10;;;;;;;1.3;0.4;;;;;;;19.1;100.0;101330;;;;
2022/08/22 02:36:05;;;;;;;1.3;0.4;;;;;;;19.1;100.0;101330;;;;
2022/08/22 02:37:01;;;;;;;1.3;0.4;;;;;;;19.1;100.0;101330;;;;
2022/08/22 02:38:04;;;;;;;0.4;0.4;;;;;;;19.1;100.0;101330;;;;
2022/08/22 02:39:12;;;;;;;0.4;0.4;;;;;;;19.1;100.0;101330;;;;
2022/08/22 02:40:10;;;;;;;0.4;0.4;;;;;;;19.1;100.0;101330;;;;
2022/08/22 02:41:00;;;;;;;0.4;0.4;;;;;;;19.1;100.0;101330;;;;
2022/08/22 02:42:10;;;;;;;0.4;0.4;;;;;;;19.1;100.0;101330;;;;
2022/08/22 02:43:10;;;;;;;0.4;0.4;;;;;;;19.1;100.0;101330;;;;
2022/08/22 02:44:03;;;;;;;0.4;0.4;;;;;;;19.1;100.0;101330;;;;
2022/08/22 02:45:10;;;;;;;0.4;0.4;;;;;;;19.0;100.0;101320;;;;
2022/08/22 02:46:07;;;;;;;0.4;0.4;;;;;;;19.0;100.0;101320;;;;
2022/08/22 02:47:03;;;;;;;0.4;0.4;;;;;;;19.0;100.0;101320;;;;
2022/08/22 02:48:09;;;;;;;0.4;0.4;;;;;;;19.0;100.0;101320;;;;
2022/08/22 02:49:01;;;;;;;0.4;0.4;;;;;;;19.0;100.0;101320;;;;
2022/08/22 02:50:13;;;;;;;0.4;0.4;;;;;;;19.0;100.0;101320;;;;
2022/08/22 02:51:01;;;;;;;0.4;0.4;;;;;;;19.0;100.0;101320;;;;
2022/08/22 02:52:01;;;;;;;0.4;0.4;;;;;;;19.1;100.0;101320;;;;
2022/08/22 02:53:12;;;;;;;0.4;0.4;;;;;;;19.1;100.0;101330;;;;
2022/08/22 02:54:10;;;;;;;0.4;0.4;;;;;;;19.1;100.0;101330;;;;
2022/08/22 02:55:07;;;;;;;0.4;0.4;;;;;;;19.1;100.0;101320;;;;
2022/08/22 02:56:10;;;;;;;0.4;0.4;;;;;;;19.1;100.0;101320;;;;
2022/08/22 02:57:04;;;;;;;0.4;0.4;;;;;;;19.1;100.0;101320;;;;
2022/08/22 02:58:07;;;;;;;0.2;0.2;;;;;;;19.1;100.0;101320;;;;
2022/08/22 02:59:10;;;;;;;0.2;0.2;;;;;;;19.1;100.0;101320;;;;
2022/08/22 03:00:20;;;;;;;0.2;0.2;;;;;;;19.1;100.0;101320;;;;
2022/08/22 03:01:01;;;;;;;0.2;0.2;;;;;;;19.1;100.0;101320;;;;
2022/08/22 03:02:10;;;;;;;0.2;0.2;;;;;;;19.0;100.0;101320;;;;
2022/08/22 03:03:02;;;;;;;0.2;0.2;;;;;;;19.0;100.0;101320;;;;
2022/08/22 03:04:10;;;;;;;0.2;0.2;;;;;;;19.0;100.0;101320;;;;
2022/08/22 03:05:10;;;;;;;0.2;0.2;;;;;;;19.1;100.0;101320;;;;
2022/08/22 03:06:04;;;;;;;0.2;0.2;;;;;;;19.1;100.0;101320;;;;
2022/08/22 03:07:05;;;;;;;0.2;0.2;;;;;;;19.1;100.0;101320;;;;
2022/08/22 03:08:04;;;;;;;0.2;0.2;;;;;;;19.1;100.0;101320;;;;
2022/08/22 03:09:05;;;;;;;0.2;0.2;;;;;;;19.1;100.0;101320;;;;
2022/08/22 03:10:09;;;;;;;0.2;0.2;;;;;;;19.1;100.0;101320;;;;
2022/08/22 03:11:06;;;;;;;0.2;0.2;;;;;;;19.1;100.0;101320;;;;
2022/08/22 03:12:10;;;;;;;0.2;0.2;;;;;;;19.1;100.0;101320;;;;
2022/08/22 03:13:10;;;;;;;0.2;0.2;;;;;;;19.2;100.0;101310;;;;
2022/08/22 03:14:10;;;;;;;0.2;0.2;;;;;;;19.2;100.0;101310;;;;
2022/08/22 03:15:05;;;;;;;0.2;0.2;;;;;;;19.2;100.0;101310;;;;
2022/08/22 03:16:09;;;;;;;0.2;0.2;;;;;;;19.0;100.0;101320;;;;
2022/08/22 03:17:04;;;;;;;0.2;0.2;;;;;;;19.0;100.0;101320;;;;
2022/08/22 03:18:10;;;;;;;0.3;0.3;;;;;;;19.1;100.0;101310;;;;
2022/08/22 03:19:13;;;;;;;0.3;0.3;;;;;;;19.1;100.0;101310;;;;
2022/08/22 03:20:01;;;;;;;0.3;0.3;;;;;;;19.1;100.0;101310;;;;
2022/08/22 03:21:08;;;;;;;0.3;0.3;;;;;;;19.1;100.0;101310;;;;
2022/08/22 03:22:02;;;;;;;0.3;0.3;;;;;;;19.1;100.0;101310;;;;
2022/08/22 03:23:04;;;;;;;0.3;0.3;;;;;;;19.1;100.0;101310;;;;
2022/08/22 03:24:04;;;;;;;0.3;0.3;;;;;;;18.9;100.0;101310;;;;
2022/08/22 03:25:00;;;;;;;0.3;0.3;;;;;;;18.9;100.0;101310;;;;
2022/08/22 03:26:07;;;;;;;0.3;0.3;;;;;;;19.0;100.0;101310;;;;
2022/08/22 03:27:04;;;;;;;0.3;0.3;;;;;;;19.0;100.0;101310;;;;
2022/08/22 03:28:02;;;;;;;0.3;0.3;;;;;;;18.9;100.0;101310;;;;
2022/08/22 03:29:03;;;;;;;0.3;0.3;;;;;;;18.9;100.0;101310;;;;
2022/08/22 03:30:04;;;;;;;0.3;0.3;;;;;;;19.1;100.0;101310;;;;
2022/08/22 03:31:11;;;;;;;0.3;0.3;;;;;;;19.1;100.0;101310;;;;
2022/08/22 03:32:03;;;;;;;0.3;0.3;;;;;;;19.1;100.0;101310;;;;
2022/08/22 03:33:03;;;;;;;0.3;0.3;;;;;;;19.1;100.0;101310;;;;
2022/08/22 03:34:10;;;;;;;0.3;0.3;;;;;;;19.1;100.0;101310;;;;
2022/08/22 03:35:07;;;;;;;0.3;0.3;;;;;;;19.0;100.0;101310;;;;
2022/08/22 03:36:03;;;;;;;0.3;0.3;;;;;;;19.0;100.0;101310;;;;
2022/08/22 03:37:10;;;;;;;0.3;0.3;;;;;;;19.1;100.0;101310;;;;
2022/08/22 03:38:10;;;;;;;0.5;0.5;;;;;;;19.1;100.0;101310;;;;
2022/08/22 03:39:01;;;;;;;0.5;0.5;;;;;;;19.1;100.0;101310;;;;
2022/08/22 03:40:04;;;;;;;0.5;0.5;;;;;;;19.1;100.0;101310;;;;
2022/08/22 03:41:07;;;;;;;0.5;0.5;;;;;;;19.0;100.0;101310;;;;
2022/08/22 03:42:10;;;;;;;0.5;0.5;;;;;;;19.0;100.0;101310;;;;
2022/08/22 03:43:10;;;;;;;0.5;0.5;;;;;;;18.9;100.0;101310;;;;
2022/08/22 03:44:10;;;;;;;0.5;0.5;;;;;;;18.9;100.0;101310;;;;
2022/08/22 03:45:10;;;;;;;0.5;0.5;;;;;;;18.9;100.0;101300;;;;
2022/08/22 03:46:01;;;;;;;0.5;0.5;;;;;;;18.9;100.0;101300;;;;
2022/08/22 03:47:10;;;;;;;0.5;0.5;;;;;;;18.9;100.0;101300;;;;
2022/08/22 03:48:01;;;;;;;0.5;0.5;;;;;;;18.9;100.0;101300;;;;
2022/08/22 03:49:03;;;;;;;0.5;0.5;;;;;;;18.9;100.0;101300;;;;
2022/08/22 03:50:10;;;;;;;0.5;0.5;;;;;;;19.0;100.0;101300;;;;
2022/08/22 03:51:10;;;;;;;0.5;0.5;;;;;;;19.0;100.0;101290;;;;
2022/08/22 03:52:01;;;;;;;0.5;0.5;;;;;;;19.0;100.0;101290;;;;
2022/08/22 03:53:18;;;;;;;0.5;0.5;;;;;;;18.9;100.0;101290;;;;
2022/08/22 03:54:10;;;;;;;0.5;0.5;;;;;;;18.9;100.0;101290;;;;
2022/08/22 03:55:07;;;;;;;0.5;0.5;;;;;;;18.8;100.0;101290;;;;
2022/08/22 03:56:10;;;;;;;0.5;0.5;;;;;;;18.8;100.0;101290;;;;
2022/08/22 03:57:06;;;;;;;0.5;0.5;;;;;;;18.8;100.0;101290;;;;
2022/08/22 03:58:00;;;;;;;0.2;0.2;;;;;;;18.7;100.0;101300;;;;
2022/08/22 03:59:11;;;;;;;0.2;0.2;;;;;;;18.7;100.0;101300;;;;
2022/08/22 04:00:06;;;;;;;0.2;0.2;;;;;;;18.7;100.0;101300;;;;
2022/08/22 04:01:08;;;;;;;0.2;0.2;;;;;;;18.8;100.0;101300;;;;
2022/08/22 04:02:19;;;;;;;0.2;0.2;;;;;;;18.8;100.0;101300;;;;
2022/08/22 04:03:10;;;;;;;0.2;0.2;;;;;;;18.7;100.0;101300;;;;
2022/08/22 04:04:01;;;;;;;0.2;0.2;;;;;;;18.7;100.0;101300;;;;
2022/08/22 04:05:12;;;;;;;0.2;0.2;;;;;;;18.7;100.0;101290;;;;
2022/08/22 04:06:12;;;;;;;0.2;0.2;;;;;;;18.7;100.0;101290;;;;
2022/08/22 04:07:20;;;;;;;0.2;0.2;;;;;;;18.7;100.0;101290;;;;
2022/08/22 04:08:03;;;;;;;0.2;0.2;;;;;;;18.7;100.0;101290;;;;
2022/08/22 04:09:10;;;;;;;0.2;0.2;;;;;;;18.8;100.0;101300;;;;
2022/08/22 04:10:10;;;;;;;0.2;0.2;;;;;;;18.8;100.0;101300;;;;
2022/08/22 04:11:04;;;;;;;0.2;0.2;;;;;;;18.8;100.0;101300;;;;
2022/08/22 04:12:12;;;;;;;0.2;0.2;;;;;;;18.5;100.0;101300;;;;
2022/08/22 04:13:10;;;;;;;0.2;0.2;;;;;;;18.4;100.0;101300;;;;
2022/08/22 04:14:10;;;;;;;0.2;0.2;;;;;;;18.4;100.0;101300;;;;
2022/08/22 04:15:10;;;;;;;0.2;0.2;;;;;;;18.4;100.0;101300;;;;
2022/08/22 04:16:07;;;;;;;0.2;0.2;;;;;;;18.4;100.0;101300;;;;
2022/08/22 04:17:03;;;;;;;0.2;0.2;;;;;;;18.4;100.0;101300;;;;
2022/08/22 04:18:08;;;;;;;0.2;0.2;;;;;;;18.5;100.0;101290;;;;
2022/08/22 04:19:08;;;;;;;0.2;0.2;;;;;;;18.5;100.0;101300;;;;
2022/08/22 04:20:08;;;;;;;0.2;0.2;;;;;;;18.5;100.0;101300;;;;
2022/08/22 04:21:10;;;;;;;0.2;0.2;;;;;;;18.5;100.0;101310;;;;
2022/08/22 04:22:01;;;;;;;0.2;0.2;;;;;;;18.5;100.0;101310;;;;
2022/08/22 04:23:08;;;;;;;0.2;0.2;;;;;;;18.4;100.0;101310;;;;
2022/08/22 04:24:08;;;;;;;0.2;0.2;;;;;;;18.4;100.0;101310;;;;
2022/08/22 04:25:10;;;;;;;0.2;0.2;;;;;;;18.5;100.0;101310;;;;
2022/08/22 04:26:12;;;;;;;0.2;0.2;;;;;;;18.5;100.0;101310;;;;
2022/08/22 04:27:05;;;;;;;0.2;0.2;;;;;;;18.5;100.0;101310;;;;
2022/08/22 04:28:04;;;;;;;0.2;0.2;;;;;;;18.5;100.0;101310;;;;
2022/08/22 04:29:04;;;;;;;0.2;0.2;;;;;;;18.5;100.0;101310;;;;
2022/08/22 04:30:01;;;;;;;0.2;0.2;;;;;;;18.5;100.0;101310;;;;
2022/08/22 04:31:00;;;;;;;0.2;0.2;;;;;;;18.5;100.0;101310;;;;
2022/08/22 04:32:14;;;;;;;0.2;0.2;;;;;;;18.4;100.0;101310;;;;
2022/08/22 04:33:10;;;;;;;0.2;0.2;;;;;;;18.4;100.0;101320;;;;
2022/08/22 04:34:05;;;;;;;0.2;0.2;;;;;;;18.4;100.0;101320;;;;
2022/08/22 04:35:05;;;;;;;0.2;0.2;;;;;;;18.4;100.0;101320;;;;
2022/08/22 04:36:11;;;;;;;0.2;0.2;;;;;;;18.4;100.0;101310;;;;
2022/08/22 04:37:02;;;;;;;0.2;0.2;;;;;;;18.4;100.0;101310;;;;
2022/08/22 04:38:04;;;;;;;0.5;0.5;;;;;;;18.3;100.0;101310;;;;
2022/08/22 04:39:04;;;;;;;0.5;0.5;;;;;;;18.3;100.0;101310;;;;
2022/08/22 04:40:10;;;;;;;0.5;0.5;;;;;;;18.3;100.0;101320;;;;
2022/08/22 04:41:05;;;;;;;0.5;0.5;;;;;;;18.3;100.0;101320;;;;
2022/08/22 04:42:13;;;;;;;0.5;0.5;;;;;;;18.2;100.0;101310;;;;
2022/08/22 04:43:05;;;;;;;0.5;0.5;;;;;;;18.2;100.0;101310;;;;
2022/08/22 04:44:00;;;;;;;0.5;0.5;;;;;;;18.2;100.0;101310;;;;
2022/08/22 04:45:04;;;;;;;0.5;0.5;;;;;;;18.2;100.0;101310;;;;
2022/08/22 04:46:06;;;;;;;0.5;0.5;;;;;;;18.1;100.0;101300;;;;
2022/08/22 04:47:04;;;;;;;0.5;0.5;;;;;;;18.1;100.0;101300;;;;
2022/08/22 04:48:05;;;;;;;0.5;0.5;;;;;;;18.1;100.0;101300;;;;
2022/08/22 04:49:07;;;;;;;0.5;0.5;;;;;;;18.1;100.0;101300;;;;
2022/08/22 04:50:04;;;;;;;0.5;0.5;;;;;;;18.0;100.0;101310;;;;
2022/08/22 04:51:02;;;;;;;0.5;0.5;;;;;;;18.0;100.0;101310;;;;
2022/08/22 04:52:09;;;;;;;0.5;0.5;;;;;;;18.0;100.0;101310;;;;
2022/08/22 04:53:07;;;;;;;0.5;0.5;;;;;;;18.0;100.0;101310;;;;
2022/08/22 04:54:08;;;;;;;0.5;0.5;;;;;;;18.0;100.0;101310;;;;
2022/08/22 04:55:10;;;;;;;0.5;0.5;;;;;;;18.0;100.0;101310;;;;
2022/08/22 04:56:07;;;;;;;0.5;0.5;;;;;;;18.0;100.0;101310;;;;
2022/08/22 04:57:00;;;;;;;0.5;0.5;;;;;;;18.0;100.0;101310;;;;
2022/08/22 04:58:08;;;;;;;1.1;1.1;;;;;;;18.0;100.0;101310;;;;
2022/08/22 04:59:03;;;;;;;1.1;1.1;;;;;;;18.0;100.0;101310;;;;
2022/08/22 05:00:02;;;;;;;1.1;1.1;;;;;;;18.0;100.0;101310;;;;
2022/08/22 05:01:10;;;;;;;1.1;1.1;;;;;;;18.0;100.0;101310;;;;
2022/08/22 05:02:05;;;;;;;1.1;1.1;;;;;;;18.0;100.0;101310;;;;
2022/08/22 05:03:00;;;;;;;1.1;1.1;;;;;;;18.0;100.0;101310;;;;
2022/08/22 05:04:02;;;;;;;1.1;1.1;;;;;;;18.1;100.0;101320;;;;
2022/08/22 05:05:03;;;;;;;1.1;1.1;;;;;;;18.1;100.0;101320;;;;
2022/08/22 05:06:02;;;;;;;1.1;1.1;;;;;;;18.1;100.0;101320;;;;
2022/08/22 05:07:00;;;;;;;1.1;1.1;;;;;;;18.1;100.0;101320;;;;
2022/08/22 05:08:02;;;;;;;1.1;1.1;;;;;;;18.0;100.0;101330;;;;
2022/08/22 05:09:03;;;;;;;1.1;1.1;;;;;;;18.0;100.0;101330;;;;
2022/08/22 05:10:12;;;;;;;1.1;1.1;;;;;;;18.1;100.0;101340;;;;
2022/08/22 05:11:02;;;;;;;1.1;1.1;;;;;;;18.1;100.0;101340;;;;
2022/08/22 05:12:05;;;;;;;1.1;1.1;;;;;;;18.0;100.0;101340;;;;
2022/08/22 05:13:02;;;;;;;1.1;1.1;;;;;;;18.0;100.0;101340;;;;
2022/08/22 05:14:04;;;;;;;1.1;1.1;;;;;;;18.0;100.0;101340;;;;
2022/08/22 05:15:07;;;;;;;1.1;1.1;;;;;;;18.1;100.0;101340;;;;
2022/08/22 05:16:02;;;;;;;1.1;1.1;;;;;;;18.1;100.0;101340;;;;
2022/08/22 05:17:03;;;;;;;1.1;1.1;;;;;;;18.1;100.0;101340;;;;
2022/08/22 05:18:05;;;;;;;0.5;0.5;;;;;;;18.0;100.0;101340;;;;
2022/08/22 05:19:02;;;;;;;0.5;0.5;;;;;;;18.0;100.0;101340;;;;
2022/08/22 05:20:02;;;;;;;0.5;0.5;;;;;;;18.0;100.0;101340;;;;
2022/08/22 05:21:02;;;;;;;0.5;0.5;;;;;;;18.0;100.0;101340;;;;
2022/08/22 05:22:00;;;;;;;0.5;0.5;;;;;;;18.1;100.0;101330;;;;
2022/08/22 05:23:06;;;;;;;0.5;0.5;;;;;;;18.1;100.0;101330;;;;
2022/08/22 05:24:06;;;;;;;0.5;0.5;;;;;;;18.1;100.0;101330;;;;
2022/08/22 05:25:02;;;;;;;0.5;0.5;;;;;;;18.1;100.0;101330;;;;
2022/08/22 05:26:01;;;;;;;0.5;0.5;;;;;;;18.1;100.0;101330;;;;
2022/08/22 05:27:08;;;;;;;0.5;0.5;;;;;;;18.2;100.0;101330;;;;
2022/08/22 05:28:06;;;;;;;0.5;0.5;;;;;;;18.2;100.0;101330;;;;
2022/08/22 05:29:01;;;;;;;0.5;0.5;;;;;;;18.2;100.0;101330;;;;
2022/08/22 05:30:06;;;;;;;0.5;0.5;;;;;;;18.2;100.0;101340;;;;
2022/08/22 05:31:04;;;;;;;0.5;0.5;;;;;;;18.2;100.0;101340;;;;
2022/08/22 05:32:02;;;;;;;0.5;0.5;;;;;;;18.2;100.0;101340;;;;
2022/08/22 05:33:10;;;;;;;0.5;0.5;;;;;;;18.1;100.0;101330;;;;
2022/08/22 05:34:03;;;;;;;0.5;0.5;;;;;;;18.1;100.0;101330;;;;
2022/08/22 05:35:02;;;;;;;0.5;0.5;;;;;;;18.1;100.0;101330;;;;
2022/08/22 05:36:03;;;;;;;0.5;0.5;;;;;;;18.2;100.0;101340;;;;
2022/08/22 05:37:09;;;;;;;0.5;0.5;;;;;;;18.4;100.0;101340;;;;
2022/08/22 05:38:01;;;;;;;0.3;0.3;;;;;;;18.4;100.0;101340;;;;
2022/08/22 05:39:04;;;;;;;0.3;0.3;;;;;;;18.4;100.0;101340;;;;
2022/08/22 05:40:00;;;;;;;0.3;0.3;;;;;;;18.5;100.0;101340;;;;
2022/08/22 05:41:04;;;;;;;0.3;0.3;;;;;;;18.5;100.0;101340;;;;
2022/08/22 05:42:01;;;;;;;0.3;0.3;;;;;;;18.5;100.0;101340;;;;
2022/08/22 05:43:00;;;;;;;0.3;0.3;;;;;;;18.5;100.0;101340;;;;
2022/08/22 05:44:01;;;;;;;0.3;0.3;;;;;;;18.5;100.0;101350;;;;
2022/08/22 05:45:02;;;;;;;0.3;0.3;;;;;;;18.5;100.0;101350;;;;
2022/08/22 05:46:00;;;;;;;0.3;0.3;;;;;;;18.4;100.0;101350;;;;
2022/08/22 05:47:07;;;;;;;0.3;0.3;;;;;;;18.6;100.0;101350;;;;
2022/08/22 05:48:04;;;;;;;0.3;0.3;;;;;;;18.6;100.0;101350;;;;
2022/08/22 05:49:02;;;;;;;0.3;0.3;;;;;;;18.6;100.0;101350;;;;
2022/08/22 05:50:00;;;;;;;0.3;0.3;;;;;;;18.5;100.0;101350;;;;
2022/08/22 05:51:07;;;;;;;0.3;0.3;;;;;;;18.7;100.0;101350;;;;
2022/08/22 05:52:06;;;;;;;0.3;0.3;;;;;;;18.7;100.0;101350;;;;
2022/08/22 05:53:10;;;;;;;0.3;0.3;;;;;;;18.7;100.0;101360;;;;
2022/08/22 05:54:08;;;;;;;0.3;0.3;;;;;;;18.7;100.0;101360;;;;
2022/08/22 05:55:10;;;;;;;0.3;0.3;;;;;;;18.7;100.0;101350;;;;
2022/08/22 05:56:07;;;;;;;0.3;0.3;;;;;;;18.7;100.0;101350;;;;
2022/08/22 05:57:08;;;;;;;0.3;0.3;;;;;;;18.8;100.0;101350;;;;
2022/08/22 05:58:01;;;;;;;0.6;0.6;;;;;;;18.8;100.0;101350;;;;
2022/08/22 05:59:02;;;;;;;0.6;0.6;;;;;;;18.8;100.0;101350;;;;
2022/08/22 06:00:05;;;;;;;0.6;0.6;;;;;;;18.7;100.0;101350;;;;
2022/08/22 06:01:08;;;;;;;0.6;0.6;;;;;;;18.7;100.0;101340;;;;
2022/08/22 06:02:07;;;;;;;0.6;0.6;;;;;;;18.7;100.0;101340;;;;
2022/08/22 06:03:10;;;;;;;0.6;0.6;;;;;;;18.7;100.0;101340;;;;
2022/08/22 06:04:07;;;;;;;0.6;0.6;;;;;;;18.7;100.0;101340;;;;
2022/08/22 06:05:02;;;;;;;0.6;0.6;;;;;;;18.7;100.0;101340;;;;
2022/08/22 06:06:05;;;;;;;0.6;0.6;;;;;;;18.9;100.0;101340;;;;
2022/08/22 06:07:03;;;;;;;0.6;0.6;;;;;;;18.9;100.0;101340;;;;
2022/08/22 06:08:04;;;;;;;0.6;0.6;;;;;;;18.8;100.0;101340;;;;
2022/08/22 06:09:03;;;;;;;0.6;0.6;;;;;;;18.8;100.0;101340;;;;
2022/08/22 06:10:00;;;;;;;0.6;0.6;;;;;;;18.8;100.0;101340;;;;
2022/08/22 06:11:05;;;;;;;0.6;0.6;;;;;;;18.8;100.0;101340;;;;
2022/08/22 06:12:02;;;;;;;0.6;0.6;;;;;;;19.0;100.0;101340;;;;
2022/08/22 06:13:02;;;;;;;0.6;0.6;;;;;;;19.0;100.0;101340;;;;
2022/08/22 06:14:08;;;;;;;0.6;0.6;;;;;;;18.9;100.0;101350;;;;
2022/08/22 06:15:01;;;;;;;0.6;0.6;;;;;;;18.9;100.0;101350;;;;
2022/08/22 06:16:00;;;;;;;0.6;0.6;;;;;;;19.0;100.0;101350;;;;
2022/08/22 06:17:05;;;;;;;0.6;0.6;;;;;;;19.0;100.0;101350;;;;
2022/08/22 06:18:04;;;;;;;0.6;0.6;;;;;;;19.0;100.0;101350;;;;
2022/08/22 06:19:02;;;;;;;0.6;0.6;;;;;;;19.0;100.0;101350;;;;
2022/08/22 06:20:01;;;;;;;0.6;0.6;;;;;;;19.0;100.0;101350;;;;
2022/08/22 06:21:02;;;;;;;0.6;0.6;;;;;;;19.0;100.0;101350;;;;
2022/08/22 06:22:00;;;;;;;0.6;0.6;;;;;;;18.9;100.0;101350;;;;
2022/08/22 06:23:01;;;;;;;0.6;0.6;;;;;;;18.9;100.0;101350;;;;